Time;durP1;ratioP1;P1;durP2;ratioP2;P2;SDS_P1;SDS_P2;PMS_P1;PMS_P2;Temp;Humidity;BMP_temperature;BMP_pressure;BME280_temperature;BME280_humidity;BME280_pressure;Samples;Min_cycle;Max_cycle;Signal;HPM_P1;HPM_P2
2021/09/12 00:00:10;;;;;;;23.77;14.77;;;18.90;99.90;;;;;;5073759;28;20059;-88
2021/09/12 00:02:36;;;;;;;19.77;13.38;;;18.80;99.90;;;;;;5057482;28;20025;-89
2021/09/12 00:05:03;;;;;;;18.27;12.90;;;18.80;99.90;;;;;;5058052;28;20042;-88
2021/09/12 00:07:29;;;;;;;19.08;14.07;;;18.80;99.90;;;;;;5057412;28;20074;-88
2021/09/12 00:09:54;;;;;;;22.10;16.17;;;18.80;99.90;;;;;;5056881;28;20020;-88
2021/09/12 00:12:20;;;;;;;21.88;14.35;;;18.80;99.90;;;;;;5057306;28;20066;-88
2021/09/12 00:14:46;;;;;;;20.00;14.43;;;18.80;99.90;;;;;;5075024;28;20031;-88
2021/09/12 00:17:11;;;;;;;23.92;15.32;;;18.80;99.90;;;;;;5057278;28;20402;-88
2021/09/12 00:19:37;;;;;;;22.35;14.70;;;18.80;99.90;;;;;;5074527;28;20032;-88
2021/09/12 00:22:03;;;;;;;22.63;14.95;;;18.80;99.90;;;;;;5057049;28;20492;-88
2021/09/12 00:24:29;;;;;;;19.13;12.85;;;18.80;99.90;;;;;;5075029;28;20135;-88
2021/09/12 00:26:55;;;;;;;19.27;13.48;;;18.80;99.90;;;;;;5057204;28;20119;-89
2021/09/12 00:29:21;;;;;;;19.75;14.13;;;18.80;99.90;;;;;;5056631;28;20032;-88
2021/09/12 00:31:47;;;;;;;20.45;13.95;;;18.80;99.90;;;;;;5056939;28;20024;-90
2021/09/12 00:34:13;;;;;;;18.95;12.93;;;18.80;99.90;;;;;;5056903;28;20109;-90
2021/09/12 00:36:39;;;;;;;23.38;14.80;;;18.70;99.90;;;;;;5056966;28;20079;-90
2021/09/12 00:39:05;;;;;;;18.15;12.32;;;18.80;99.90;;;;;;5074250;28;20431;-89
2021/09/12 00:41:38;;;;;;;21.80;14.35;;;18.80;99.90;;;;;;5056898;28;20031;-90
2021/09/12 00:44:06;;;;;;;22.85;14.45;;;18.80;99.90;;;;;;5058328;28;20032;-88
2021/09/12 00:46:31;;;;;;;18.45;12.98;;;18.80;99.90;;;;;;5059613;28;20031;-89
2021/09/12 00:48:57;;;;;;;21.20;14.73;;;18.80;99.90;;;;;;5060163;28;20028;-89
2021/09/12 00:51:23;;;;;;;22.55;14.32;;;18.80;99.90;;;;;;5057375;28;20020;-87
2021/09/12 00:53:51;;;;;;;16.08;11.95;;;18.80;99.90;;;;;;5056556;28;20031;-89
2021/09/12 00:56:18;;;;;;;21.67;14.35;;;18.80;99.90;;;;;;5056597;28;20480;-89
2021/09/12 00:58:44;;;;;;;19.90;14.13;;;18.80;99.90;;;;;;5074342;28;20032;-89
2021/09/12 01:01:09;;;;;;;25.13;14.93;;;18.70;99.90;;;;;;5056520;28;20028;-90
2021/09/12 01:03:35;;;;;;;23.80;16.85;;;18.70;99.90;;;;;;5056111;28;20059;-90
2021/09/12 01:06:01;;;;;;;22.58;14.80;;;18.70;99.90;;;;;;5056422;28;20020;-90
2021/09/12 01:08:27;;;;;;;22.65;16.45;;;18.70;99.90;;;;;;5056360;28;20028;-90
2021/09/12 01:10:53;;;;;;;21.83;14.10;;;18.80;99.90;;;;;;5056151;28;20031;-89
2021/09/12 01:13:19;;;;;;;24.13;15.93;;;18.80;99.90;;;;;;5056056;28;20556;-90
2021/09/12 01:15:45;;;;;;;25.00;16.55;;;18.70;99.90;;;;;;5056340;28;20150;-88
2021/09/12 01:18:11;;;;;;;24.60;15.77;;;18.70;99.90;;;;;;5072597;28;20024;-90
2021/09/12 01:20:37;;;;;;;21.85;14.88;;;18.70;99.90;;;;;;5072782;28;20115;-90
2021/09/12 01:23:06;;;;;;;23.20;16.13;;;18.80;99.90;;;;;;5074153;28;20546;-90
2021/09/12 01:25:36;;;;;;;21.30;15.55;;;18.70;99.90;;;;;;5055879;28;20091;-90
2021/09/12 01:28:06;;;;;;;27.27;18.15;;;18.70;99.90;;;;;;5055912;28;20498;-90
2021/09/12 01:30:32;;;;;;;27.58;16.52;;;18.70;99.90;;;;;;5055743;28;20027;-90
2021/09/12 01:32:58;;;;;;;20.98;14.50;;;18.70;99.90;;;;;;5055794;28;20016;-89
2021/09/12 01:35:24;;;;;;;22.77;16.20;;;18.70;99.90;;;;;;5072461;28;20043;-90
2021/09/12 01:37:49;;;;;;;22.92;15.32;;;18.60;99.90;;;;;;5073547;28;20091;-90
2021/09/12 01:40:24;;;;;;;23.77;16.08;;;18.60;99.90;;;;;;5055717;28;20145;-89
2021/09/12 01:42:49;;;;;;;21.25;14.48;;;18.60;99.90;;;;;;5055547;28;20058;-90
2021/09/12 01:45:15;;;;;;;21.77;14.77;;;18.60;99.90;;;;;;5055462;28;20028;-90
2021/09/12 01:47:45;;;;;;;21.95;14.32;;;18.60;99.90;;;;;;5055653;28;20032;-90
2021/09/12 01:50:11;;;;;;;20.42;15.30;;;18.60;99.90;;;;;;5071832;28;20473;-90
2021/09/12 01:52:37;;;;;;;23.00;15.65;;;18.60;99.90;;;;;;5056021;28;20029;-90
2021/09/12 01:55:03;;;;;;;21.60;15.13;;;18.60;99.90;;;;;;5069584;28;20031;-90
2021/09/12 01:57:28;;;;;;;21.75;13.90;;;18.60;99.90;;;;;;5071919;28;20020;-91
2021/09/12 01:59:54;;;;;;;18.60;13.88;;;18.60;99.90;;;;;;5071243;28;20059;-90
2021/09/12 02:02:20;;;;;;;21.27;14.98;;;18.60;99.90;;;;;;5073924;28;20055;-90
2021/09/12 02:04:45;;;;;;;21.80;15.00;;;18.50;99.90;;;;;;5059457;28;20073;-90
2021/09/12 02:07:11;;;;;;;28.42;16.27;;;18.50;99.90;;;;;;5055283;28;20119;-90
2021/09/12 02:09:37;;;;;;;20.35;14.27;;;18.50;99.90;;;;;;5073291;28;20023;-90
2021/09/12 02:12:03;;;;;;;18.10;13.48;;;18.50;99.90;;;;;;5055261;28;20028;-89
2021/09/12 02:14:28;;;;;;;21.45;14.20;;;18.50;99.90;;;;;;5055712;28;20069;-89
2021/09/12 02:16:54;;;;;;;20.25;14.00;;;18.50;99.90;;;;;;5073573;28;20103;-89
2021/09/12 02:19:19;;;;;;;25.65;15.68;;;18.50;99.90;;;;;;5055523;28;20117;-89
2021/09/12 02:21:45;;;;;;;23.35;15.68;;;18.50;99.90;;;;;;5073652;28;20127;-89
2021/09/12 02:24:11;;;;;;;21.25;13.93;;;18.50;99.90;;;;;;5067285;28;20086;-89
2021/09/12 02:26:37;;;;;;;22.67;14.23;;;18.40;99.90;;;;;;5070038;28;20216;-89
2021/09/12 02:29:02;;;;;;;24.58;14.40;;;18.40;99.90;;;;;;5071369;28;20053;-90
2021/09/12 02:31:28;;;;;;;24.02;16.30;;;18.40;99.90;;;;;;5089039;28;20028;-89
2021/09/12 02:33:54;;;;;;;22.48;15.60;;;18.40;99.90;;;;;;5087646;28;20028;-88
2021/09/12 02:36:19;;;;;;;24.75;15.85;;;18.40;99.90;;;;;;5068740;28;20033;-89
2021/09/12 02:38:45;;;;;;;26.67;17.42;;;18.40;99.90;;;;;;5055961;28;20024;-89
2021/09/12 02:41:10;;;;;;;26.17;16.20;;;18.40;99.90;;;;;;5054394;28;20032;-90
2021/09/12 02:43:36;;;;;;;24.15;16.27;;;18.40;99.90;;;;;;5053863;28;20102;-89
2021/09/12 02:46:02;;;;;;;29.08;18.13;;;18.40;99.90;;;;;;5072590;28;20021;-89
2021/09/12 02:48:27;;;;;;;32.55;18.20;;;18.40;99.90;;;;;;5055229;28;20032;-89
2021/09/12 02:50:53;;;;;;;24.00;17.23;;;18.40;99.90;;;;;;5054681;28;20035;-89
2021/09/12 02:53:19;;;;;;;27.55;16.38;;;18.40;99.90;;;;;;5071380;28;20028;-90
2021/09/12 02:55:44;;;;;;;30.40;19.40;;;18.40;99.90;;;;;;5072754;28;20032;-89
2021/09/12 02:58:10;;;;;;;26.67;16.73;;;18.30;99.90;;;;;;5054751;28;20063;-89
2021/09/12 03:00:36;;;;;;;28.30;17.83;;;18.30;99.90;;;;;;5054787;28;20040;-89
2021/09/12 03:03:01;;;;;;;27.52;17.17;;;18.40;99.90;;;;;;5054663;28;20029;-89
2021/09/12 03:05:27;;;;;;;25.45;16.17;;;18.30;99.90;;;;;;5056827;28;20033;-88
2021/09/12 03:07:53;;;;;;;24.23;15.48;;;18.30;99.90;;;;;;5060963;28;20035;-88
2021/09/12 03:10:18;;;;;;;21.55;14.18;;;18.30;99.90;;;;;;5060552;28;20051;-89
2021/09/12 03:12:44;;;;;;;21.33;13.07;;;18.30;99.90;;;;;;5071183;28;20459;-90
2021/09/12 03:15:10;;;;;;;22.55;14.00;;;18.30;99.90;;;;;;5054141;28;20119;-90
2021/09/12 03:17:35;;;;;;;23.80;14.45;;;18.30;99.90;;;;;;5054768;28;20111;-88
2021/09/12 03:20:01;;;;;;;24.85;14.30;;;18.30;99.90;;;;;;5054325;28;20034;-89
2021/09/12 03:22:26;;;;;;;22.25;13.68;;;18.30;99.90;;;;;;5054226;28;20128;-88
2021/09/12 03:24:52;;;;;;;22.65;12.73;;;18.30;99.90;;;;;;5054209;28;20029;-90
2021/09/12 03:27:18;;;;;;;19.25;11.98;;;18.20;99.90;;;;;;5072010;28;20067;-90
2021/09/12 03:29:43;;;;;;;17.85;10.60;;;18.20;99.90;;;;;;5054282;28;20028;-89
2021/09/12 03:32:09;;;;;;;17.98;10.07;;;18.20;99.90;;;;;;5054240;28;20492;-89
2021/09/12 03:34:34;;;;;;;18.80;10.55;;;18.20;99.90;;;;;;5054136;28;20500;-89
2021/09/12 03:37:00;;;;;;;19.20;10.65;;;18.20;99.90;;;;;;5054097;28;20028;-89
2021/09/12 03:39:26;;;;;;;16.67;9.05;;;18.10;99.90;;;;;;5071994;28;20366;-89
2021/09/12 03:41:51;;;;;;;16.65;8.50;;;18.20;99.90;;;;;;5054076;28;20422;-88
2021/09/12 03:44:17;;;;;;;12.98;8.48;;;18.10;99.90;;;;;;5053710;28;20040;-89
2021/09/12 03:46:43;;;;;;;14.65;8.52;;;18.10;99.90;;;;;;5071908;28;20055;-89
2021/09/12 03:49:09;;;;;;;17.48;8.48;;;18.10;99.90;;;;;;5053957;28;20063;-89
2021/09/12 03:51:34;;;;;;;13.60;7.97;;;18.10;99.90;;;;;;5053877;28;20017;-90
2021/09/12 03:54:00;;;;;;;12.82;7.88;;;18.00;99.90;;;;;;5054262;28;20554;-90
2021/09/12 03:56:25;;;;;;;10.90;7.32;;;18.00;99.90;;;;;;5053800;28;20024;-90
2021/09/12 03:58:51;;;;;;;12.00;8.15;;;18.00;99.90;;;;;;5053736;28;20098;-90
2021/09/12 04:01:17;;;;;;;14.07;8.77;;;18.00;99.90;;;;;;5053755;28;20467;-89
2021/09/12 04:03:42;;;;;;;20.38;9.48;;;18.00;99.90;;;;;;5053802;28;20119;-90
2021/09/12 04:06:08;;;;;;;13.02;8.23;;;18.00;99.90;;;;;;5054321;28;20024;-90
2021/09/12 04:08:34;;;;;;;12.93;8.27;;;18.00;99.90;;;;;;5053783;28;20060;-90
2021/09/12 04:10:59;;;;;;;12.45;8.07;;;18.00;99.90;;;;;;5071629;28;20059;-90
2021/09/12 04:14:10;;;;;;;16.15;8.93;;;17.90;99.90;;;;;;5053578;28;20452;-90
2021/09/12 04:16:35;;;;;;;16.30;8.25;;;17.90;99.90;;;;;;5057520;28;20028;-89
2021/09/12 04:19:01;;;;;;;11.18;7.13;;;17.90;99.90;;;;;;5075265;28;20473;-89
2021/09/12 04:21:27;;;;;;;16.77;8.40;;;17.90;99.90;;;;;;5057150;28;20062;-89
2021/09/12 04:23:52;;;;;;;14.10;7.57;;;17.80;99.90;;;;;;5057125;28;20032;-88
2021/09/12 04:26:18;;;;;;;11.77;7.05;;;17.80;99.90;;;;;;5074990;28;20029;-89
2021/09/12 04:28:44;;;;;;;12.10;6.60;;;17.80;99.90;;;;;;5074953;28;20021;-90
2021/09/12 04:31:11;;;;;;;10.32;6.57;;;17.80;99.90;;;;;;5057053;28;20025;-90
2021/09/12 04:33:37;;;;;;;11.60;6.25;;;17.70;99.90;;;;;;5074779;28;20032;-90
2021/09/12 04:36:03;;;;;;;12.25;6.57;;;17.70;99.90;;;;;;5057289;28;20029;-90
2021/09/12 04:38:28;;;;;;;15.98;7.00;;;17.80;99.90;;;;;;5056983;28;20395;-90
2021/09/12 04:40:54;;;;;;;15.82;6.78;;;17.70;99.90;;;;;;5057005;28;20483;-91
2021/09/12 04:43:19;;;;;;;12.93;6.47;;;17.80;99.90;;;;;;5056619;28;20040;-90
2021/09/12 04:45:45;;;;;;;13.63;7.40;;;17.80;99.90;;;;;;5058457;28;20025;-90
2021/09/12 04:48:11;;;;;;;10.65;6.75;;;17.70;99.90;;;;;;5059765;28;20397;-90
2021/09/12 04:50:36;;;;;;;8.25;5.70;;;17.70;99.90;;;;;;5058759;28;20456;-89
2021/09/12 04:53:02;;;;;;;8.90;5.80;;;17.70;99.90;;;;;;5056875;28;20021;-89
2021/09/12 04:55:28;;;;;;;11.70;5.43;;;17.70;99.90;;;;;;5056467;28;20067;-89
2021/09/12 04:57:54;;;;;;;9.90;4.90;;;17.70;99.90;;;;;;5056588;28;20066;-89
2021/09/12 05:00:19;;;;;;;8.75;4.65;;;17.60;99.90;;;;;;5056546;28;20123;-89
2021/09/12 05:02:46;;;;;;;9.23;4.60;;;17.60;99.90;;;;;;5056565;28;20024;-89
2021/09/12 05:05:12;;;;;;;9.00;4.47;;;17.60;99.90;;;;;;5056096;28;20052;-88
2021/09/12 05:07:37;;;;;;;8.65;4.40;;;17.50;99.90;;;;;;5056231;28;20063;-88
2021/09/12 05:10:03;;;;;;;8.75;4.25;;;17.50;99.90;;;;;;5055837;28;20380;-88
2021/09/12 05:12:29;;;;;;;9.15;4.07;;;17.50;99.90;;;;;;5056028;28;20169;-88
2021/09/12 05:14:55;;;;;;;10.27;4.60;;;17.50;99.90;;;;;;5056079;28;20028;-89
2021/09/12 05:17:21;;;;;;;11.48;4.30;;;17.50;99.90;;;;;;5056172;28;20025;-88
2021/09/12 05:19:47;;;;;;;8.95;4.22;;;17.50;99.90;;;;;;5055481;28;20024;-89
2021/09/12 05:22:13;;;;;;;7.93;3.92;;;17.50;99.90;;;;;;5055780;28;20021;-88
2021/09/12 05:24:38;;;;;;;11.50;4.72;;;17.50;99.90;;;;;;5055890;28;20031;-91
2021/09/12 05:27:05;;;;;;;8.73;3.92;;;17.50;99.90;;;;;;5055968;28;20115;-91
2021/09/12 05:29:30;;;;;;;8.55;4.25;;;17.50;99.90;;;;;;5055927;28;20534;-90
2021/09/12 05:31:56;;;;;;;11.13;4.10;;;17.50;99.90;;;;;;5055747;28;20020;-90
2021/09/12 05:34:22;;;;;;;9.55;3.95;;;17.50;99.90;;;;;;5055849;28;20052;-90
2021/09/12 05:36:47;;;;;;;8.80;3.90;;;17.50;99.90;;;;;;5055758;28;20489;-90
2021/09/12 05:39:13;;;;;;;10.10;4.43;;;17.50;99.90;;;;;;5055647;28;20036;-90
2021/09/12 05:41:38;;;;;;;9.18;4.10;;;17.50;99.90;;;;;;5055807;28;20178;-90
2021/09/12 05:44:04;;;;;;;9.95;4.32;;;17.50;99.90;;;;;;5056055;28;20032;-88
2021/09/12 05:46:30;;;;;;;9.63;3.88;;;17.50;99.90;;;;;;5073614;28;20538;-90
2021/09/12 05:48:55;;;;;;;7.63;3.80;;;17.50;99.90;;;;;;5055463;28;20389;-90
2021/09/12 05:51:21;;;;;;;12.65;4.10;;;17.50;99.90;;;;;;5073363;28;20485;-90
2021/09/12 05:53:47;;;;;;;11.57;4.32;;;17.50;99.90;;;;;;5055415;28;20438;-90
2021/09/12 05:56:12;;;;;;;9.85;4.15;;;17.50;99.90;;;;;;5055567;28;20560;-90
2021/09/12 05:58:38;;;;;;;11.43;4.38;;;17.50;99.90;;;;;;5055271;28;20500;-89
2021/09/12 06:01:03;;;;;;;7.40;4.10;;;17.50;99.90;;;;;;5073415;28;20078;-90
2021/09/12 06:03:29;;;;;;;8.95;4.32;;;17.50;99.90;;;;;;5055167;28;20033;-90
2021/09/12 06:05:55;;;;;;;9.98;4.57;;;17.50;99.90;;;;;;5056058;28;20028;-88
2021/09/12 06:08:20;;;;;;;7.90;4.45;;;17.40;99.90;;;;;;5073468;28;20074;-89
2021/09/12 06:10:46;;;;;;;10.18;4.30;;;17.40;99.90;;;;;;5055172;28;20056;-90
2021/09/12 06:13:12;;;;;;;8.52;4.43;;;17.50;99.90;;;;;;5055136;28;20035;-89
2021/09/12 06:15:37;;;;;;;6.72;4.13;;;17.50;99.90;;;;;;5055063;28;20032;-90
2021/09/12 06:18:03;;;;;;;9.32;4.50;;;17.50;99.90;;;;;;5054930;28;20087;-90
2021/09/12 06:20:29;;;;;;;11.38;4.90;;;17.50;99.90;;;;;;5054889;28;20460;-89
2021/09/12 06:22:54;;;;;;;8.88;5.00;;;17.50;99.90;;;;;;5072745;28;20100;-90
2021/09/12 06:25:29;;;;;;;9.95;5.40;;;17.50;99.90;;;;;;5072684;28;20024;-90
2021/09/12 06:28:15;;;;;;;9.52;5.07;;;17.50;99.90;;;;;;5073156;28;20025;-90
2021/09/12 06:31:34;;;;;;;10.00;5.25;;;17.50;99.90;;;;;;5055305;28;20504;-90
2021/09/12 06:34:02;;;;;;;;;;;17.50;99.90;;;;;;5043346;28;20036;-90
2021/09/12 06:36:38;;;;;;;8.65;5.95;;;17.50;99.90;;;;;;5054145;28;20310;-90
2021/09/12 06:39:04;;;;;;;11.48;5.68;;;17.50;99.90;;;;;;5054098;28;20086;-90
2021/09/12 06:41:43;;;;;;;10.32;6.03;;;17.60;99.90;;;;;;5054436;28;20452;-90
2021/09/12 06:44:21;;;;;;;13.50;5.68;;;17.60;99.90;;;;;;5054561;28;20077;-90
2021/09/12 06:47:00;;;;;;;10.98;5.72;;;17.60;99.90;;;;;;5055083;28;20029;-90
2021/09/12 06:49:57;;;;;;;10.23;5.13;;;17.60;99.90;;;;;;5054703;28;20082;-90
2021/09/12 06:52:39;;;;;;;10.60;5.20;;;17.60;99.90;;;;;;5054843;28;20021;-90
2021/09/12 06:55:28;;;;;;;9.90;5.03;;;17.60;99.90;;;;;;5055208;28;20056;-90
2021/09/12 06:57:54;;;;;;;12.52;4.95;;;17.60;99.90;;;;;;5047012;28;20032;-88
2021/09/12 07:00:20;;;;;;;9.50;4.78;;;17.60;99.90;;;;;;5072731;28;20025;-86
2021/09/12 07:02:46;;;;;;;9.68;4.47;;;17.60;99.90;;;;;;5055482;28;20035;-87
2021/09/12 07:05:11;;;;;;;12.85;4.13;;;17.60;99.90;;;;;;5055840;28;20024;-89
2021/09/12 07:07:37;;;;;;;8.63;4.30;;;17.60;99.90;;;;;;5056280;28;20078;-88
2021/09/12 07:10:03;;;;;;;16.58;5.10;;;17.60;99.90;;;;;;5056274;28;20480;-88
2021/09/12 07:12:29;;;;;;;11.45;4.30;;;17.60;99.90;;;;;;5054271;28;20030;-89
2021/09/12 07:14:57;;;;;;;10.68;4.18;;;17.60;99.90;;;;;;5054787;28;20123;-89
2021/09/12 07:17:23;;;;;;;10.68;5.47;;;17.50;99.90;;;;;;5054610;28;20035;-89
2021/09/12 07:19:49;;;;;;;10.88;4.68;;;17.60;99.90;;;;;;5054184;28;20435;-89
2021/09/12 07:22:14;;;;;;;9.00;4.50;;;17.60;99.90;;;;;;5054161;28;20396;-89
2021/09/12 07:24:40;;;;;;;10.52;4.50;;;17.60;99.90;;;;;;5054433;28;20175;-89
2021/09/12 07:27:06;;;;;;;11.70;5.00;;;17.60;99.90;;;;;;5053838;28;20025;-88
2021/09/12 07:29:32;;;;;;;12.90;3.85;;;17.60;99.90;;;;;;5053334;28;20020;-87
2021/09/12 07:31:58;;;;;;;7.63;4.40;;;17.70;99.90;;;;;;5071580;28;20013;-88
2021/09/12 07:34:24;;;;;;;13.50;4.47;;;17.70;99.90;;;;;;5053895;28;20324;-89
2021/09/12 07:36:50;;;;;;;11.73;3.65;;;17.70;99.90;;;;;;5054136;28;20020;-88
2021/09/12 07:39:16;;;;;;;10.30;3.60;;;17.70;99.90;;;;;;5053200;28;20039;-88
2021/09/12 07:41:41;;;;;;;6.57;3.00;;;17.70;99.90;;;;;;5053768;28;20035;-88
2021/09/12 07:44:07;;;;;;;10.50;3.45;;;17.70;99.90;;;;;;5053672;28;20043;-88
2021/09/12 07:46:33;;;;;;;6.35;3.28;;;17.80;99.90;;;;;;5054284;28;20496;-89
2021/09/12 07:48:58;;;;;;;9.27;3.72;;;17.80;99.90;;;;;;5054083;28;20070;-87
2021/09/12 07:51:24;;;;;;;5.85;2.97;;;17.80;99.90;;;;;;5057854;28;20074;-88
2021/09/12 07:53:49;;;;;;;7.97;2.65;;;17.80;99.90;;;;;;5058450;28;20020;-89
2021/09/12 07:56:15;;;;;;;7.93;2.47;;;17.90;99.90;;;;;;5057610;28;20469;-88
2021/09/12 07:58:41;;;;;;;7.20;2.90;;;17.90;99.90;;;;;;5057671;28;20431;-88
2021/09/12 08:01:06;;;;;;;6.65;2.40;;;18.00;99.90;;;;;;5056886;28;20063;-89
2021/09/12 08:03:32;;;;;;;7.43;2.30;;;18.00;99.90;;;;;;5075373;28;20043;-90
2021/09/12 08:05:57;;;;;;;6.60;2.15;;;18.00;99.90;;;;;;5057835;28;20060;-89
2021/09/12 08:08:23;;;;;;;8.27;2.40;;;18.00;99.80;;;;;;5058055;28;20059;-89
2021/09/12 08:10:49;;;;;;;10.15;2.78;;;18.10;99.90;;;;;;5057499;28;20439;-89
2021/09/12 08:13:15;;;;;;;8.48;2.80;;;18.10;99.70;;;;;;5057725;28;20032;-90
2021/09/12 08:15:41;;;;;;;6.85;2.80;;;18.10;99.70;;;;;;5057437;28;20020;-90
2021/09/12 08:18:07;;;;;;;8.68;2.92;;;18.20;99.50;;;;;;5058439;28;20025;-90
2021/09/12 08:20:33;;;;;;;8.88;2.75;;;18.20;99.60;;;;;;5075794;28;20025;-89
2021/09/12 08:22:58;;;;;;;11.73;3.30;;;18.20;99.60;;;;;;5057611;28;20443;-90
2021/09/12 08:25:25;;;;;;;11.60;3.30;;;18.20;99.50;;;;;;5058451;28;20021;-90
2021/09/12 08:27:50;;;;;;;10.57;3.08;;;18.30;99.70;;;;;;5058533;28;20027;-89
2021/09/12 08:30:16;;;;;;;7.45;2.85;;;18.30;99.50;;;;;;5076763;28;20024;-89
2021/09/12 08:32:42;;;;;;;9.52;3.00;;;18.30;99.60;;;;;;5075764;28;20025;-88
2021/09/12 08:35:08;;;;;;;10.57;2.80;;;18.40;98.90;;;;;;5057622;28;20032;-89
2021/09/12 08:37:34;;;;;;;8.50;2.60;;;18.40;98.80;;;;;;5075120;28;20017;-90
2021/09/12 08:40:00;;;;;;;10.73;2.85;;;18.50;98.70;;;;;;5056990;28;20033;-89
2021/09/12 08:42:27;;;;;;;9.73;2.53;;;18.50;98.40;;;;;;5056847;28;20036;-89
2021/09/12 08:44:53;;;;;;;10.10;2.30;;;18.50;98.40;;;;;;5058171;28;20092;-90
2021/09/12 08:47:20;;;;;;;10.90;2.75;;;18.50;98.40;;;;;;5058748;28;20048;-89
2021/09/12 08:49:46;;;;;;;6.68;2.50;;;18.60;98.50;;;;;;5060371;28;20449;-90
2021/09/12 08:52:13;;;;;;;6.25;3.17;;;18.60;98.70;;;;;;5059868;28;20052;-89
2021/09/12 08:54:39;;;;;;;8.48;3.42;;;18.60;99.00;;;;;;5059191;28;20055;-88
2021/09/12 08:57:05;;;;;;;7.80;2.65;;;18.70;99.10;;;;;;5059089;28;20028;-89
2021/09/12 08:59:33;;;;;;;8.05;3.25;;;18.80;98.90;;;;;;5058619;28;20455;-89
2021/09/12 09:02:02;;;;;;;7.82;3.15;;;18.80;98.80;;;;;;5058348;28;20384;-90
2021/09/12 09:04:33;;;;;;;9.55;3.00;;;18.80;98.80;;;;;;5057357;28;20037;-89
2021/09/12 09:07:27;;;;;;;6.78;2.80;;;18.90;98.50;;;;;;5074609;28;20059;-89
2021/09/12 09:09:53;;;;;;;7.60;2.92;;;18.90;98.60;;;;;;5055466;28;20423;-90
2021/09/12 09:12:36;;;;;;;9.00;2.70;;;18.90;98.20;;;;;;5056761;28;20047;-89
2021/09/12 09:15:13;;;;;;;8.45;2.78;;;18.90;97.40;;;;;;5056331;28;20020;-89
2021/09/12 09:17:49;;;;;;;7.10;2.63;;;19.00;97.60;;;;;;5056164;28;20435;-90
2021/09/12 09:20:18;;;;;;;5.22;2.17;;;18.90;97.60;;;;;;5056119;28;20480;-89
2021/09/12 09:22:48;;;;;;;8.07;2.40;;;19.00;96.80;;;;;;5056032;28;20115;-89
2021/09/12 09:25:19;;;;;;;8.30;2.30;;;19.00;96.10;;;;;;5056369;28;20080;-90
2021/09/12 09:27:56;;;;;;;4.85;2.00;;;19.10;96.30;;;;;;5056479;28;20020;-90
2021/09/12 09:30:23;;;;;;;5.22;2.25;;;19.10;96.50;;;;;;5056236;28;20505;-89
2021/09/12 09:32:49;;;;;;;6.60;2.10;;;19.10;96.80;;;;;;5055834;28;20016;-89
2021/09/12 09:35:24;;;;;;;9.07;2.65;;;19.10;96.30;;;;;;5056278;28;20491;-89
2021/09/12 09:37:51;;;;;;;5.07;2.10;;;19.20;96.30;;;;;;5055904;28;20025;-89
2021/09/12 09:40:17;;;;;;;5.53;1.98;;;19.20;96.20;;;;;;5055340;28;20086;-89
2021/09/12 09:42:45;;;;;;;7.50;1.88;;;19.20;96.30;;;;;;5055666;28;20489;-88
2021/09/12 09:45:14;;;;;;;6.25;2.20;;;19.20;96.10;;;;;;5055702;28;20052;-89
2021/09/12 09:47:42;;;;;;;4.50;2.10;;;19.30;95.40;;;;;;5055915;28;20028;-89
2021/09/12 09:50:29;;;;;;;8.63;2.10;;;19.30;95.50;;;;;;5055906;28;20025;-89
2021/09/12 09:52:56;;;;;;;7.07;2.35;;;19.30;95.70;;;;;;5055635;28;20021;-89
2021/09/12 09:55:23;;;;;;;6.47;1.83;;;19.20;95.60;;;;;;5073817;28;20476;-89
2021/09/12 09:57:52;;;;;;;4.45;2.05;;;19.20;95.60;;;;;;5055655;28;20481;-89
2021/09/12 10:00:19;;;;;;;4.10;1.93;;;19.20;95.90;;;;;;5055152;28;20516;-89
2021/09/12 10:02:45;;;;;;;6.85;2.33;;;19.20;95.90;;;;;;5055621;28;20266;-89
2021/09/12 10:05:13;;;;;;;7.07;2.55;;;19.20;95.90;;;;;;5055307;28;20033;-89
2021/09/12 10:07:40;;;;;;;3.97;1.90;;;19.20;96.00;;;;;;5054749;28;20033;-89
2021/09/12 10:10:16;;;;;;;5.50;2.47;;;19.20;95.80;;;;;;5072562;28;20016;-89
2021/09/12 10:12:55;;;;;;;4.97;2.03;;;19.20;95.90;;;;;;5054518;28;20024;-89
2021/09/12 10:15:30;;;;;;;6.55;2.78;;;19.30;95.10;;;;;;5055098;28;20028;-89
2021/09/12 10:17:56;;;;;;;6.75;2.67;;;19.40;95.30;;;;;;5054846;28;20033;-91
2021/09/12 10:20:27;;;;;;;5.85;2.38;;;19.50;95.20;;;;;;5054942;28;20029;-90
2021/09/12 10:23:02;;;;;;;5.10;2.45;;;19.50;94.80;;;;;;5055187;28;20028;-89
2021/09/12 10:25:32;;;;;;;4.72;2.15;;;19.50;94.10;;;;;;5054953;28;20024;-90
2021/09/12 10:28:05;;;;;;;3.70;1.65;;;19.50;94.30;;;;;;5054945;28;20082;-90
2021/09/12 10:30:40;;;;;;;6.78;2.60;;;19.60;94.20;;;;;;5054988;28;20477;-90
2021/09/12 10:33:09;;;;;;;9.95;3.00;;;19.60;94.00;;;;;;5072769;28;20543;-89
2021/09/12 10:35:53;;;;;;;;;;;19.60;93.70;;;;;;5055217;28;20070;-90
2021/09/12 10:38:31;;;;;;;6.47;2.40;;;19.60;93.70;;;;;;5072682;28;19994;-89
2021/09/12 10:40:56;;;;;;;7.68;2.50;;;19.70;93.60;;;;;;5054876;28;20139;-88
2021/09/12 10:43:25;;;;;;;5.90;2.45;;;19.70;93.50;;;;;;5072453;28;20111;-89
2021/09/12 10:45:56;;;;;;;5.28;2.45;;;19.80;93.40;;;;;;5072529;28;20102;-90
2021/09/12 10:48:23;;;;;;;5.43;2.40;;;19.90;92.60;;;;;;5072658;28;20024;-90
2021/09/12 10:50:49;;;;;;;6.75;2.30;;;19.90;92.40;;;;;;5072302;28;20477;-90
2021/09/12 10:53:18;;;;;;;7.75;3.17;;;20.00;92.20;;;;;;5054632;28;20074;-90
2021/09/12 10:56:01;;;;;;;7.40;3.45;;;20.00;91.40;;;;;;5054512;28;20115;-90
2021/09/12 10:58:29;;;;;;;10.52;3.10;;;20.10;91.40;;;;;;5054555;28;20029;-90
2021/09/12 11:00:56;;;;;;;9.60;3.22;;;20.10;91.80;;;;;;5072386;28;20060;-90
2021/09/12 11:03:22;;;;;;;5.10;2.65;;;20.10;92.10;;;;;;5054626;28;20094;-90
2021/09/12 11:05:47;;;;;;;5.63;2.53;;;20.10;92.70;;;;;;5054455;28;20496;-89
2021/09/12 11:08:13;;;;;;;5.38;2.90;;;20.20;93.20;;;;;;5057115;28;20025;-90
2021/09/12 11:10:49;;;;;;;6.03;2.42;;;20.20;92.60;;;;;;5057856;28;20456;-90
2021/09/12 11:13:23;;;;;;;6.15;2.53;;;20.30;92.10;;;;;;5056506;28;20017;-89
2021/09/12 11:15:50;;;;;;;4.82;2.25;;;20.30;91.50;;;;;;5054615;28;20028;-89
2021/09/12 11:18:16;;;;;;;5.93;2.45;;;20.20;91.50;;;;;;5054727;28;20025;-89
2021/09/12 11:20:47;;;;;;;7.32;2.42;;;20.20;91.80;;;;;;5055849;28;20077;-89
2021/09/12 11:23:33;;;;;;;8.75;2.50;;;20.20;91.80;;;;;;5057250;28;20032;-89
2021/09/12 11:25:59;;;;;;;5.05;2.55;;;20.10;92.10;;;;;;5061033;28;20093;-88
2021/09/12 11:28:27;;;;;;;5.03;2.45;;;20.10;91.90;;;;;;5069712;28;20028;-90
2021/09/12 11:30:53;;;;;;;6.80;3.20;;;20.10;91.90;;;;;;5077853;28;20402;-89
2021/09/12 11:33:18;;;;;;;5.78;2.63;;;20.10;91.90;;;;;;5075773;28;20021;-89
2021/09/12 11:36:01;;;;;;;6.18;2.50;;;20.10;92.00;;;;;;5075658;28;20012;-90
2021/09/12 11:38:28;;;;;;;3.47;1.80;;;20.00;92.20;;;;;;5062636;28;20027;-89
2021/09/12 11:40:57;;;;;;;5.75;2.50;;;20.00;92.20;;;;;;5076807;28;20025;-90
2021/09/12 11:43:24;;;;;;;5.03;2.30;;;20.10;91.80;;;;;;5077235;28;20189;-89
2021/09/12 11:46:04;;;;;;;6.38;2.42;;;20.00;91.70;;;;;;5058446;28;20029;-90
2021/09/12 11:48:29;;;;;;;6.45;2.40;;;20.00;91.20;;;;;;5058457;28;20020;-90
2021/09/12 11:50:55;;;;;;;5.13;1.85;;;20.10;91.50;;;;;;5058502;28;20027;-90
2021/09/12 11:53:25;;;;;;;7.40;3.17;;;20.10;92.00;;;;;;5058305;28;20020;-88
2021/09/12 11:55:51;;;;;;;8.27;2.75;;;20.10;91.90;;;;;;5079167;28;20424;-89
2021/09/12 11:58:17;;;;;;;5.35;2.60;;;20.10;92.40;;;;;;5069081;28;20024;-89
2021/09/12 12:00:47;;;;;;;4.13;2.30;;;20.10;91.70;;;;;;5067054;28;20050;-89
2021/09/12 12:03:24;;;;;;;6.88;2.85;;;20.10;92.00;;;;;;5070080;28;20035;-89
2021/09/12 12:05:50;;;;;;;5.40;2.40;;;20.10;92.30;;;;;;5077776;28;20025;-90
2021/09/12 12:08:18;;;;;;;7.03;2.35;;;20.20;92.10;;;;;;5074736;28;20027;-89
2021/09/12 12:10:44;;;;;;;7.32;2.30;;;20.20;92.30;;;;;;5066806;28;20024;-90
2021/09/12 12:13:10;;;;;;;7.13;2.80;;;20.20;92.10;;;;;;5058365;28;20048;-91
2021/09/12 12:15:46;;;;;;;4.93;2.30;;;20.20;92.20;;;;;;5057475;28;20103;-91
2021/09/12 12:18:14;;;;;;;7.63;3.00;;;20.20;92.60;;;;;;5057755;28;20128;-90
2021/09/12 12:20:41;;;;;;;4.13;2.20;;;20.20;92.00;;;;;;5057801;28;20541;-90
2021/09/12 12:23:25;;;;;;;6.30;2.30;;;20.20;92.10;;;;;;5057727;28;20058;-90
2021/09/12 12:25:53;;;;;;;7.03;2.40;;;20.30;91.50;;;;;;5057363;28;20050;-91
2021/09/12 12:28:26;;;;;;;7.90;3.22;;;20.40;91.50;;;;;;5057382;28;20027;-90
2021/09/12 12:31:13;;;;;;;7.82;3.17;;;20.40;91.70;;;;;;5057452;28;20016;-91
2021/09/12 12:33:40;;;;;;;6.18;2.38;;;20.40;92.00;;;;;;5057191;28;20021;-91
2021/09/12 12:36:11;;;;;;;7.47;2.80;;;20.50;91.80;;;;;;5056826;28;20031;-91
2021/09/12 12:38:38;;;;;;;6.32;2.42;;;20.50;91.50;;;;;;5057387;28;20033;-89
2021/09/12 12:41:19;;;;;;;8.13;2.45;;;20.50;91.00;;;;;;5075746;28;20082;-89